Tiempo atmosférico en la estación meteorológica de Villadepera, Zamora (790 m.)



Fecha
DESCASC
Temp. máxima en grados centígrados (hora)
DESCASC
Temp. mínima en grados centígrados (hora)
DESCASC
Temp. media en grados centígrados
DESCASC
Racha de viento máxima en m/sg (hora)
DESCASC
Velocidad máxima media en intervalos de 10 minutos(hora)
DESCASC
Precipitaciones diarias en mm
DESCASC
Precipitaciones de 00:00 a 06:00 en mm
DESCASC
Precipitaciones de 06:00 a 12:00 en mm
DESCASC
Precipitaciones de 12:00 a 18:00 en mm
DESCASC
Precipitaciones de 18:00 a 24:00 en mm
DESCASC
31-03-2020 7.8 (19:00) 0.1 (05:50) 4 15.56 (04:30) 11.39 (10:00) 1 0 0 1 0
29-03-2020 17.9 (18:20) 2.8 (00:00) 10.3 13.89 (22:30) 8.61 (22:30) 0 0 0 0 0
28-03-2020 14.4 (17:20) 0.4 (00:00) 7.4 8.61 (14:20) 5 (14:20) 0 0 0 0 0
27-03-2020 12.4 (17:20) -0.8 (-00:0) 5.8 13.06 (10:10) 8.89 (10:20) 0 0 0 0 0
26-03-2020 18.2 (17:20) 1.6 (00:00) 9.9 12.78 (23:30) 7.78 (23:30) 0 0 0 0 0
25-03-2020 18.9 (16:40) 4.8 (00:00) 11.8 10.56 (18:10) 7.5 (15:10) 0 0 0 0 0
24-03-2020 15.5 (15:20) 4.7 (00:00) 10.1 11.11 (14:10) 7.78 (14:10) 0 0 0 0 0
23-03-2020 14.4 (16:50) 4.9 (00:00) 9.6 11.11 (14:40) 7.22 (14:30) 0 0 0 0 0
22-03-2020 14.7 (17:30) 6.1 (02:20) 10.4 6.67 (13:40) 3.89 (13:40) 2.4 2.4 0 0 0
21-03-2020 8.5 (00:00) 6.3 (00:00) 7.4 8.33 (02:40) 5.83 (14:20) 5 0 0.2 0.4 4.4
20-03-2020 11.7 (11:40) 7.6 (00:00) 9.6 7.5 (14:30) 5.28 (14:10) 6.6 0 0 5.4 1.2
19-03-2020 14.9 (17:00) 7.8 (00:00) 11.3 6.39 (15:30) 4.72 (16:10) 0 0 0 0 0
18-03-2020 16.5 (16:00) 6.6 (00:00) 11.5 10.28 (07:30) 7.78 (12:00) 0 0 0 0 0
17-03-2020 14.1 (15:30) 4.6 (00:00) 9.4 18.89 (08:00) 11.94 (04:20) 0.6 0.6 0 0 0
16-03-2020 9.3 (17:00) 0.8 (00:00) 5.1 14.17 (15:10) 10.28 (15:10) 1 0.8 0.2 0 0
15-03-2020 16 (13:20) 1.7 (00:00) 8.9 15.83 (19:40) 12.22 (19:40) 0.6 0 0 0 0.6
14-03-2020 17.6 (17:30) 1.9 (00:00) 9.8 5.83 (00:20) 4.72 (00:10) 0 0 0 0 0
13-03-2020 15.4 (16:50) 5.9 (06:50) 10.6 11.94 (06:20) 8.33 (09:40) 0 0 0 0 0
12-03-2020 19.9 (16:50) 8.5 (00:00) 14.2 12.5 (23:30) 8.33 (23:30) 0 0 0 0 0
11-03-2020 22.5 (16:00) 7.6 (00:00) 15 8.61 (16:30) 6.39 (15:50) 0 0 0 0 0
10-03-2020 19.5 (16:00) 5.1 (00:00) 12.3 11.11 (16:50) 8.61 (16:30) 0 0 0 0 0
09-03-2020 14.9 (16:40) 2.1 (00:00) 8.5 9.17 (00:30) 7.22 (00:20) 0 0 0 0 0
08-03-2020 12.4 (17:10) 1.7 (00:00) 7 11.39 (17:10) 8.89 (18:00) 0 0 0 0 0
07-03-2020 13.6 (16:50) 2.2 (00:00) 7.9 8.06 (01:20) 5.83 (01:20) 0 0 0 0 0
06-03-2020 9.6 (15:10) 2.9 (00:00) 6.3 16.94 (11:00) 11.67 (11:00) 0.6 0.6 0 0 0
05-03-2020 11.3 (16:40) 4.1 (00:00) 7.7 18.89 (07:20) 13.89 (12:20) 6 1.6 4.4 0 0
04-03-2020 13 (16:00) 9 (09:20) 11 13.33 (20:20) 9.72 (20:20) 0.4 0 0 0 0.4

Gráficas

Temp. máximas Temp. mínimas Temp. medias Precipitaciones Rachas de viento máximas Velocidades máximas media en intervalos de 10 minutos

Datos horarios

Fecha y hora oficial Temperatura (ºC) Velocidad del viento (km/h) Dirección del viento Racha (km/h) Dirección de racha Precipitación (mm) Presión (hPa) Tendencia (hPa) Humedad (%)
2020-04-02 23:00:00 8.5 7 Este 11 Nordeste 0 -- -- 81
2020-04-02 22:00:00 9 5 Este 12 Este 0 -- -- 79
2020-04-02 21:00:00 9.8 8 Este 25 Este 0.2 -- -- 78
2020-04-02 20:00:00 11.9 13 Este 26 Este 0 -- -- 67
2020-04-02 19:00:00 11.9 12 Este 27 Nordeste 0 -- -- 63
2020-04-02 18:00:00 12.6 16 Este 30 Este 0 -- -- 65
2020-04-02 17:00:00 12 19 Nordeste 37 Nordeste 0 -- -- 68
2020-04-02 16:00:00 12.7 18 Este 33 Este 0 -- -- 68
2020-04-02 15:00:00 11.8 24 Este 36 Este 0 -- -- 73
2020-04-02 14:00:00 8.6 20 Este 38 Nordeste 0 -- -- 88
2020-04-02 13:00:00 11.8 28 Nordeste 42 Este 0 -- -- 69
2020-04-02 12:00:00 9.5 15 Nordeste 26 Este 0 -- -- 85
2020-04-02 11:00:00 7.5 13 Nordeste 19 Nordeste 0.2 -- -- 93
2020-04-02 10:00:00 6.6 12 Nordeste 22 Nordeste 0.2 -- -- 95
2020-04-02 09:00:00 6.3 13 Nordeste 24 Nordeste 0 -- -- 94
2020-04-02 08:00:00 6.2 15 Nordeste 26 Nordeste 0 -- -- 94
2020-04-02 07:00:00 6.4 13 Nordeste 21 Nordeste 0 -- -- 93
2020-04-02 06:00:00 6.3 17 Nordeste 24 Nordeste 0 -- -- 92
2020-04-02 05:00:00 5.8 14 Nordeste 20 Nordeste 0 -- -- 94
2020-04-02 04:00:00 6.4 11 Nordeste 22 Nordeste 0 -- -- 92
2020-04-02 03:00:00 6.3 11 Nordeste 24 Nordeste 0 -- -- 93
2020-04-02 02:00:00 5.9 13 Nordeste 16 Nordeste 0 -- -- 90
2020-04-02 01:00:00 6.5 10 Norte 14 Norte 0 -- -- 87
2020-04-02 00:00:00 6.8 7 Este 10 Nordeste 0 -- -- 87
2020-04-01 23:00:00 7.4 7 Este 18 Nordeste 0.2 -- -- 86
2020-04-01 22:00:00 8.2 10 Nordeste 18 Norte 0 -- -- 79
2020-04-01 21:00:00 9.2 10 Norte 17 Norte 0 -- -- 74
2020-04-01 20:00:00 11.5 5 Oeste 18 Sudoeste 0 -- -- 52
2020-04-01 19:00:00 12.4 8 Noroeste 18 Oeste 0 -- -- 51
2020-04-01 18:00:00 12.2 12 Oeste 24 Sudoeste 0 -- -- 54
2020-04-01 17:00:00 11.8 8 Oeste 23 Oeste 0 -- -- 63
2020-04-01 16:00:00 10.6 13 Sudoeste 24 Sudoeste 0 -- -- 70
2020-04-01 15:00:00 8.9 13 Sudoeste 21 Oeste 0 -- -- 77
2020-04-01 14:00:00 8.3 8 Sudoeste 15 Oeste 0 -- -- 81
2020-04-01 13:00:00 6.7 12 Oeste 16 Oeste 0 -- -- 91
2020-04-01 12:00:00 6.1 4 Sudoeste 10 Sudoeste 0.4 -- -- 90
2020-04-01 11:00:00 5.9 4 Norte 9 Nordeste 0 -- -- 89
2020-04-01 10:00:00 5.2 3 Sudoeste 13 Sudoeste 0 -- -- 92
2020-04-01 09:00:00 3.6 6 Oeste 9 Sudoeste 0 -- -- 95
2020-04-01 08:00:00 3.3 8 Sudoeste 10 Sudoeste 0 -- -- 95
2020-04-01 07:00:00 4.2 5 Oeste 12 Oeste 0.2 -- -- 95
2020-04-01 06:00:00 4.9 4 Oeste 14 Oeste 0 -- -- 95
2020-04-01 05:00:00 5.6 11 Oeste 15 Sudoeste 0 -- -- 95
2020-04-01 04:00:00 6.3 9 Oeste 16 Oeste 0 -- -- 94
2020-04-01 03:00:00 6.5 5 Sudoeste 11 Oeste 0 -- -- 93
2020-04-01 02:00:00 6.6 4 Oeste 17 Sudoeste 0 -- -- 93
2020-04-01 01:00:00 6.4 12 Este 21 Este 0 -- -- 93
2020-04-01 00:00:00 6.4 13 Este 25 Este 0 -- -- 92
2020-03-31 23:00:00 6.4 13 Nordeste 25 Nordeste 0 -- -- 91
2020-03-31 22:00:00 6.5 17 Nordeste 31 Nordeste 0 -- -- 87
2020-03-31 21:00:00 7 18 Nordeste 27 Este 0 -- -- 84
2020-03-31 20:00:00 7.5 21 Nordeste 34 Este 0 -- -- 81
2020-03-31 19:00:00 7.8 22 Nordeste 32 Este 0 -- -- 81
2020-03-31 18:00:00 7.1 22 Este 30 Este 0 -- -- 86
2020-03-31 17:00:00 6.7 14 Este 24 Este 0.8 -- -- 88
2020-03-31 16:00:00 6 18 Nordeste 39 Nordeste 0.2 -- -- 85
2020-03-31 15:00:00 6 26 Nordeste 43 Nordeste 0 -- -- 77
2020-03-31 14:00:00 6.4 31 Nordeste 49 Nordeste 0 -- -- 69
2020-03-31 13:00:00 5.5 30 Nordeste 49 Este 0 -- -- 68
2020-03-31 12:00:00 2.9 28 Nordeste 49 Nordeste 0 -- -- 75
2020-03-31 11:00:00 1.8 36 Nordeste 55 Nordeste 0 -- -- 74
2020-03-31 10:00:00 1 41 Nordeste 55 Nordeste 0 -- -- 75
2020-03-31 09:00:00 0.2 32 Nordeste 44 Nordeste 0 -- -- 78
2020-03-31 08:00:00 0.1 29 Nordeste 55 Nordeste 0 -- -- 77
2020-03-31 07:00:00 0.1 32 Nordeste 55 Nordeste 0 -- -- 76
2020-03-31 06:00:00 0.2 33 Nordeste 54 Nordeste 0 -- -- 76
2020-03-31 05:00:00 0.3 33 Nordeste 56 Nordeste 0 -- -- 75
2020-03-31 04:00:00 0.6 39 Nordeste 54 Nordeste 0 -- -- 71
2020-03-31 03:00:00 0.8 34 Nordeste 51 Nordeste 0 -- -- 68
2020-03-31 02:00:00 0.9 36 Nordeste 55 Nordeste 0 -- -- 66
2020-03-31 01:00:00 1.2 25 Nordeste 51 Nordeste 0 -- -- 65
2020-03-31 00:00:00 1.7 30 Nordeste 54 Nordeste 0 -- -- 62
2020-03-30 23:00:00 2.1 34 Nordeste 56 Este 0 -- -- 60
2020-03-30 22:00:00 2.8 35 Este 50 Este 0 -- -- 56
2020-03-30 21:00:00 3.6 28 Este 49 Nordeste 0 -- -- 50
2020-03-30 20:00:00 4.2 31 Este 49 Este 0 -- -- 50
2020-03-30 19:00:00 4.6 34 Este 50 Este 0 -- -- 49
2020-03-30 18:00:00 4.7 25 Este 42 Este 0 -- -- 53
2020-03-30 17:00:00 4.8 25 Este 51 Este 0 -- -- 52
2020-03-30 16:00:00 5.1 31 Este 48 Este 0 -- -- 53
2020-03-30 15:00:00 4.6 31 Nordeste 51 Nordeste 0 -- -- 54
2020-03-30 14:00:00 4.9 35 Nordeste 51 Este 0 -- -- 59
2020-03-30 13:00:00 3.5 33 Este 49 Este 0 -- -- 65
2020-03-30 12:00:00 2.9 29 Este 50 Este 0 -- -- 66
2020-03-30 11:00:00 2 28 Este 54 Nordeste 0 -- -- 73
2020-03-30 10:00:00 1.7 35 Este 55 Este 0 -- -- 75
2020-03-30 09:00:00 1.9 30 Este 62 Este 0 -- -- 77
2020-03-30 08:00:00 2.3 35 Este 50 Este 0 -- -- 77
2020-03-30 07:00:00 2.8 31 Este 48 Este 0 -- -- 81
2020-03-30 06:00:00 3.5 37 Este 52 Nordeste 0 -- -- 76
2020-03-30 05:00:00 3.9 28 Este 46 Este 0 -- -- 77
2020-03-30 04:00:00 4.6 26 Este 46 Este 0 -- -- 78
2020-03-30 03:00:00 5.3 26 Este 40 Este 0 -- -- 79
2020-03-30 02:00:00 5.8 22 Este 38 Este 0 -- -- 78
2020-03-30 01:00:00 6.6 24 Este 44 Nordeste 0 -- -- 76
2020-03-30 00:00:00 7.2 21 Nordeste 42 Nordeste 0 -- -- 74
2020-03-29 23:00:00 8.5 24 Nordeste 50 Nordeste 0 -- -- 67
2020-03-29 22:00:00 12.7 7 Sudeste 10 Sudeste 0 -- -- 49
2020-03-29 21:00:00 13.4 4 Sur 9 Sudoeste 0 -- -- 46
2020-03-29 20:00:00 15.5 6 Sur 13 Sur 0 -- -- 45
2020-03-29 19:00:00 16.3 5 Sur 13 Sur 0 -- -- 41
2020-03-29 18:00:00 16.3 3 Sur 12 Sudoeste 0 -- -- 39
2020-03-29 17:00:00 16.8 5 Sur 14 Oeste 0 -- -- 39
2020-03-29 16:00:00 16.5 7 Sudoeste 12 Sur 0 -- -- 42
2020-03-29 15:00:00 15.4 5 Este 14 Este 0 -- -- 47
2020-03-29 14:00:00 14.5 8 Sudeste 15 Este 0 -- -- 45
2020-03-29 13:00:00 12.9 7 Este 18 Este 0 -- -- 58
2020-03-29 12:00:00 10.9 11 Este 19 Este 0 -- -- 64
2020-03-29 11:00:00 9 10 Nordeste 15 Nordeste 0 -- -- 69
2020-03-29 10:00:00 5.4 7 Nordeste 13 Este 0 -- -- 78
2020-03-29 09:00:00 3.6 10 Este 13 Este 0 -- -- 80
2020-03-29 08:00:00 3.7 8 Nordeste 10 Nordeste 0 -- -- 76
2020-03-29 07:00:00 4.6 7 Nordeste 8 Nordeste 0 -- -- 70
2020-03-29 06:00:00 5.5 5 Nordeste 8 Este 0 -- -- 63
2020-03-29 05:00:00 5.6 5 Este 20 Este 0 -- -- 62
2020-03-29 03:00:00 9.2 3 Nordeste 4 Nordeste 0 -- -- 43
2020-03-29 01:00:00 9.4 4 Nordeste 4 Nordeste 0 -- -- 42
2020-03-29 00:00:00 10.4 3 Nordeste 4 Norte 0 -- -- 39
2020-03-28 23:00:00 11 0 Calma 4 Nordeste 0 -- -- 37
2020-03-28 22:00:00 10.6 4 Nordeste 6 Nordeste 0 -- -- 41
2020-03-28 21:00:00 10.2 5 Nordeste 9 Nordeste 0 -- -- 42
2020-03-28 20:00:00 10.9 7 Nordeste 9 Nordeste 0 -- -- 45
2020-03-28 19:00:00 12.1 7 Nordeste 14 Nordeste 0 -- -- 46
2020-03-28 18:00:00 13.5 10 Este 16 Este 0 -- -- 39
2020-03-28 17:00:00 13.9 6 Este 21 Sudeste 0 -- -- 36
2020-03-28 16:00:00 14 13 Este 28 Nordeste 0 -- -- 36
2020-03-28 15:00:00 13.6 17 Nordeste 31 Este 0 -- -- 38
2020-03-28 14:00:00 12.6 13 Este 25 Nordeste 0 -- -- 46
2020-03-28 13:00:00 11.9 11 Este 24 Este 0 -- -- 48
2020-03-28 12:00:00 10.6 16 Este 26 Nordeste 0 -- -- 50
2020-03-28 11:00:00 9.4 15 Nordeste 23 Este 0 -- -- 57
2020-03-28 10:00:00 7.2 9 Este 19 Nordeste 0 -- -- 65
2020-03-28 09:00:00 4.4 10 Nordeste 17 Nordeste 0 -- -- 74
2020-03-28 08:00:00 2.1 11 Nordeste 14 Nordeste 0 -- -- 79
2020-03-28 07:00:00 0.4 5 Este 10 Este 0 -- -- 82
2020-03-28 06:00:00 1.1 8 Nordeste 10 Nordeste 0 -- -- 78
2020-03-28 05:00:00 1.6 6 Este 12 Este 0 -- -- 76
2020-03-28 04:00:00 2.6 5 Este 6 Este 0 -- -- 69
2020-03-28 03:00:00 4.5 3 Sudeste 4 Sudeste 0 -- -- 60
2020-03-28 02:00:00 5.3 3 Sur 8 Sudoeste 0 -- -- 56
2020-03-28 01:00:00 6.1 0 Calma 5 Sur 0 -- -- 53
2020-03-28 00:00:00 6.5 5 Sudeste 6 Sudeste 0 -- -- 52
2020-03-27 23:00:00 6.8 5 Nordeste 6 Nordeste 0 -- -- 50
2020-03-27 22:00:00 7.5 2 Este -- -- 0 -- -- 47
2020-03-27 21:00:00 7.9 3 Nordeste 5 Este 0 -- -- 47
2020-03-27 20:00:00 8.3 4 Este 12 Sudeste 0 -- -- 46
2020-03-27 19:00:00 10.1 9 Este 19 Este 0 -- -- 45
2020-03-27 18:00:00 10.9 6 Este 31 Este 0 -- -- 42
2020-03-27 17:00:00 10.6 14 Sudeste 32 Este 0 -- -- 40
2020-03-27 16:00:00 10.9 17 Este 41 Este 0 -- -- 36
2020-03-27 15:00:00 9.8 23 Este 40 Este 0 -- -- 42
2020-03-27 14:00:00 8.7 25 Nordeste 44 Nordeste 0 -- -- 49
2020-03-27 13:00:00 7.9 25 Nordeste 46 Nordeste 0 -- -- 53
2020-03-27 12:00:00 6.8 27 Nordeste 43 Nordeste 0 -- -- 54
2020-03-27 11:00:00 5.4 27 Nordeste 47 Este 0 -- -- 60
2020-03-27 10:00:00 3.9 30 Nordeste 44 Este 0 -- -- 64
2020-03-27 09:00:00 2.3 26 Nordeste 40 Nordeste 0 -- -- 73
2020-03-27 08:00:00 0.3 19 Nordeste 28 Nordeste 0 -- -- 79
2020-03-27 07:00:00 -0.6 13 Nordeste 23 Nordeste 0 -- -- 81
2020-03-27 06:00:00 -0.2 11 Nordeste 23 Nordeste 0 -- -- 79
2020-03-27 05:00:00 0.3 15 Nordeste 33 Este 0 -- -- 80
2020-03-27 04:00:00 1.4 24 Este 34 Este 0 -- -- 75
2020-03-27 03:00:00 2 18 Este 31 Este 0 -- -- 78
2020-03-27 02:00:00 2.5 16 Este 27 Este 0 -- -- 81
2020-03-27 01:00:00 3.2 14 Este 32 Este 0 -- -- 78
2020-03-27 00:00:00 4.4 21 Este 46 Este 0 -- -- 72
2020-03-26 23:00:00 5.2 19 Este 39 Nordeste 0 -- -- 68
2020-03-26 22:00:00 7.8 22 Nordeste 32 Nordeste 0 -- -- 59
2020-03-26 21:00:00 9.1 9 Este 19 Sudeste 0 -- -- 47
2020-03-26 20:00:00 10.5 15 Sudeste 21 Este 0 -- -- 47
2020-03-26 19:00:00 14.9 8 Sudeste 20 Oeste 0 -- -- 42
2020-03-26 18:00:00 16.5 6 Sudoeste 13 Oeste 0 -- -- 36
2020-03-26 17:00:00 16.3 6 Noroeste 14 Oeste 0 -- -- 36
2020-03-26 16:00:00 15.9 5 Oeste 15 Oeste 0 -- -- 34
2020-03-26 15:00:00 14.8 3 Norte 14 Oeste 0 -- -- 36
2020-03-26 14:00:00 14.3 6 Sur 12 Sudoeste 0 -- -- 43
2020-03-26 13:00:00 12.9 5 Sudoeste 13 Sudeste 0 -- -- 48
2020-03-26 12:00:00 11.5 4 Sudeste 17 Este 0 -- -- 49
2020-03-26 11:00:00 9.7 6 Sudeste 14 Sudeste 0 -- -- 50
2020-03-26 10:00:00 6.9 11 Sudeste 19 Este 0 -- -- 62
2020-03-26 09:00:00 4.1 15 Este 20 Este 0 -- -- 71
2020-03-26 08:00:00 2 9 Este 14 Este 0 -- -- 71
2020-03-26 07:00:00 4 5 Nordeste 8 Este 0 -- -- 56
2020-03-26 06:00:00 4.7 3 Nordeste 5 Nordeste 0 -- -- 52
2020-03-26 05:00:00 5.5 3 Sur 5 Sur 0 -- -- 50
2020-03-26 04:00:00 5.9 2 Sur 10 Oeste 0 -- -- 47
2020-03-26 03:00:00 5.9 5 Sur 11 Sur 0 -- -- 50
2020-03-26 02:00:00 6.3 8 Sur 15 Sudeste 0 -- -- 53
2020-03-26 01:00:00 7.4 6 Sur 10 Este 0 -- -- 52
2020-03-26 00:00:00 8.9 5 Sudoeste 18 Nordeste 0 -- -- 45
2020-03-25 23:00:00 10.2 10 Norte 21 Nordeste 0 -- -- 40
2020-03-25 22:00:00 12.1 10 Norte 23 Nordeste 0 -- -- 39
2020-03-25 21:00:00 13.7 16 Nordeste 23 Nordeste 0 -- -- 39
2020-03-25 20:00:00 15.2 4 Nordeste 26 Norte 0 -- -- 55
2020-03-25 19:00:00 16.8 15 Noroeste 38 Oeste 0 -- -- 43
2020-03-25 18:00:00 16.7 23 Oeste 32 Oeste 0 -- -- 44
2020-03-25 17:00:00 18.2 19 Oeste 32 Oeste 0 -- -- 40
2020-03-25 16:00:00 18.5 19 Oeste 34 Oeste 0 -- -- 40
2020-03-25 15:00:00 17.9 27 Oeste 37 Oeste 0 -- -- 52
2020-03-25 14:00:00 16 13 Oeste 36 Oeste 0 -- -- 54
2020-03-25 13:00:00 16.1 23 Oeste 32 Oeste 0 -- -- 57
2020-03-25 12:00:00 14.8 21 Oeste 33 Sudoeste 0 -- -- 60
2020-03-25 11:00:00 12.1 10 Oeste 16 Oeste 0 -- -- 68
2020-03-25 10:00:00 10 4 Sudoeste 9 Oeste 0 -- -- 78
2020-03-25 09:00:00 7.3 2 Sudoeste 6 Sudoeste 0 -- -- 85
2020-03-25 08:00:00 5 6 Sudoeste 9 Oeste 0 -- -- 88
2020-03-25 07:00:00 4.8 6 Sudeste 8 Sudeste 0 -- -- 88
2020-03-25 06:00:00 5.3 4 Nordeste 9 Norte 0 -- -- 84
2020-03-25 05:00:00 6.5 8 Norte 13 Norte 0 -- -- 81
2020-03-25 04:00:00 6.4 8 Nordeste 10 Nordeste 0 -- -- 80
2020-03-25 03:00:00 7.3 5 Nordeste 10 Nordeste 0 -- -- 76
2020-03-25 02:00:00 7.3 7 Nordeste 13 Nordeste 0 -- -- 76
2020-03-25 01:00:00 8 10 Nordeste 14 Nordeste 0 -- -- 74
2020-03-25 00:00:00 8.5 10 Nordeste 12 Norte 0 -- -- 72
2020-03-24 23:00:00 9.2 8 Este 12 Este 0 -- -- 69
2020-03-24 22:00:00 9.8 8 Este 15 Este 0 -- -- 66
2020-03-24 21:00:00 10.4 6 Nordeste 15 Nordeste 0 -- -- 66
2020-03-24 20:00:00 11.3 12 Nordeste 19 Nordeste 0 -- -- 65
2020-03-24 19:00:00 13.5 10 Nordeste 28 Nordeste 0 -- -- 57
2020-03-24 18:00:00 14.5 18 Nordeste 32 Nordeste 0 -- -- 53
2020-03-24 17:00:00 14.5 20 Nordeste 38 Nordeste 0 -- -- 54
2020-03-24 16:00:00 15.1 22 Este 40 Nordeste 0 -- -- 52
2020-03-24 15:00:00 15 22 Nordeste 40 Nordeste 0 -- -- 54
2020-03-24 14:00:00 14.3 27 Este 37 Este 0 -- -- 59
2020-03-24 13:00:00 13.2 22 Este 32 Nordeste 0 -- -- 67
2020-03-24 12:00:00 12.3 18 Nordeste 30 Este 0 -- -- 76
2020-03-24 11:00:00 10.3 19 Nordeste 32 Nordeste 0 -- -- 80
2020-03-24 10:00:00 8.2 17 Nordeste 27 Nordeste 0 -- -- 88
2020-03-24 09:00:00 6.2 20 Nordeste 31 Nordeste 0 -- -- 94
2020-03-24 08:00:00 5.2 18 Nordeste 26 Nordeste 0 -- -- 96
2020-03-24 07:00:00 4.7 15 Nordeste 24 Nordeste 0 -- -- 96
2020-03-24 06:00:00 5.2 14 Nordeste 25 Nordeste 0 -- -- 94
2020-03-24 05:00:00 5.3 15 Nordeste 24 Nordeste 0 -- -- 94
2020-03-24 04:00:00 5.4 12 Este 22 Este 0 -- -- 92
2020-03-24 03:00:00 5.5 10 Nordeste 16 Nordeste 0 -- -- 90
2020-03-24 02:00:00 6.3 11 Este 19 Este 0 -- -- 87
2020-03-24 01:00:00 6.8 10 Nordeste 23 Este 0 -- -- 86
2020-03-24 00:00:00 7.7 14 Este 19 Este 0 -- -- 84
2020-03-23 23:00:00 8.4 13 Nordeste 21 Nordeste 0 -- -- 80
2020-03-23 22:00:00 8.5 6 Nordeste 18 Nordeste 0 -- -- 79
2020-03-23 21:00:00 9.5 12 Nordeste 17 Nordeste 0 -- -- 75
2020-03-23 20:00:00 10.5 5 Este 21 Sudeste 0 -- -- 75
2020-03-23 19:00:00 12.7 17 Sudeste 36 Nordeste 0 -- -- 65
2020-03-23 18:00:00 13.7 13 Nordeste 34 Este 0 -- -- 58
2020-03-23 17:00:00 14 18 Nordeste 28 Nordeste 0 -- -- 56
2020-03-23 16:00:00 13.5 24 Nordeste 38 Este 0 -- -- 61
2020-03-23 15:00:00 14.1 21 Este 40 Este 0 -- -- 60
2020-03-23 14:00:00 13.5 26 Nordeste 35 Nordeste 0 -- -- 65
2020-03-23 13:00:00 12.3 23 Nordeste 35 Este 0 -- -- 69
2020-03-23 12:00:00 11.1 21 Nordeste 33 Este 0 -- -- 78
2020-03-23 11:00:00 10.2 19 Este 30 Nordeste 0 -- -- 79
2020-03-23 10:00:00 8.3 15 Nordeste 26 Nordeste 0 -- -- 84
2020-03-23 09:00:00 6.7 17 Nordeste 27 Nordeste 0 -- -- 89
2020-03-23 08:00:00 5.2 20 Nordeste 30 Nordeste 0 -- -- 93
2020-03-23 07:00:00 5.1 22 Nordeste 33 Nordeste 0 -- -- 93
2020-03-23 06:00:00 5.5 23 Nordeste 33 Nordeste 0 -- -- 92
2020-03-23 05:00:00 5.9 24 Nordeste 32 Nordeste 0 -- -- 91
2020-03-23 04:00:00 6.1 19 Nordeste 31 Nordeste 0 -- -- 90
2020-03-23 03:00:00 6.7 19 Nordeste 31 Nordeste 0 -- -- 89
2020-03-23 02:00:00 6.9 19 Nordeste 28 Nordeste 0 -- -- 89
2020-03-23 01:00:00 7.6 17 Nordeste 25 Nordeste 0 -- -- 88
2020-03-23 00:00:00 8.1 13 Norte 19 Nordeste 0 -- -- 85
2020-03-22 23:00:00 8.7 8 Norte 13 Norte 0 -- -- 84
2020-03-22 22:00:00 9 8 Norte 12 Norte 0 -- -- 82
2020-03-22 21:00:00 10.3 3 Nordeste 13 Sudeste 0 -- -- 71
2020-03-22 20:00:00 10.8 5 Sudeste 21 Este 0 -- -- 68
2020-03-22 19:00:00 12.5 10 Sudeste 13 Sudeste 0 -- -- 69
2020-03-22 18:00:00 13.8 5 Este 20 Este 0 -- -- 68
2020-03-22 17:00:00 13.4 5 Este 15 Nordeste 0 -- -- 67
2020-03-22 16:00:00 12.9 8 Nordeste 22 Este 0 -- -- 70
2020-03-22 15:00:00 12.9 8 Este 17 Este 0 -- -- 72
2020-03-22 14:00:00 11.9 10 Este 24 Este 0 -- -- 78
2020-03-22 13:00:00 10.5 9 Nordeste 17 Este 0 -- -- 84
2020-03-22 12:00:00 9.4 13 Este 17 Este 0 -- -- 89
2020-03-22 11:00:00 8.5 11 Nordeste 21 Este 0 -- -- 90
2020-03-22 10:00:00 7.9 10 Nordeste 15 Este 0 -- -- 97
2020-03-22 09:00:00 7.2 8 Nordeste 17 Nordeste 0 -- -- 99
2020-03-22 08:00:00 6.8 8 Este 17 Nordeste 0 -- -- 99
2020-03-22 07:00:00 6.5 12 Nordeste 15 Nordeste 0 -- -- 99
2020-03-22 06:00:00 6.3 5 Nordeste 8 Nordeste 0 -- -- 98
2020-03-22 05:00:00 6.3 5 Norte 12 Norte 0.6 -- -- 99
2020-03-22 04:00:00 6.2 9 Norte 13 Noroeste 0.4 -- -- 98
2020-03-22 03:00:00 6.1 8 Norte 9 Noroeste 0.2 -- -- 98
2020-03-22 02:00:00 6.2 7 Norte 9 Norte 0.6 -- -- 99
2020-03-22 01:00:00 6.3 6 Norte 9 Norte 0.6 -- -- 98
2020-03-22 00:00:00 6.3 6 Norte 13 Noroeste 0.4 -- -- 97
2020-03-21 23:00:00 6.3 6 Noroeste 9 Noroeste 3.6 -- -- 97
2020-03-21 22:00:00 6.6 7 Noroeste 9 Noroeste 0 -- -- 96
2020-03-21 21:00:00 6.8 6 Noroeste 10 Oeste 0.2 -- -- 96
2020-03-21 20:00:00 7.2 7 Oeste 9 Oeste 0.2 -- -- 96
2020-03-21 19:00:00 7.5 7 Oeste 12 Oeste 0 -- -- 93
2020-03-21 18:00:00 7.6 10 Oeste 17 Oeste 0 -- -- 92
2020-03-21 17:00:00 7.8 13 Oeste 17 Oeste 0.2 -- -- 90
2020-03-21 16:00:00 7.9 12 Sudoeste 22 Oeste 0 -- -- 90
2020-03-21 15:00:00 8.3 18 Sudoeste 27 Sudoeste 0 -- -- 88
2020-03-21 14:00:00 7.5 19 Sudoeste 24 Sudoeste 0 -- -- 92
2020-03-21 13:00:00 7.6 13 Sudoeste 18 Sudoeste 0.2 -- -- 92
2020-03-21 12:00:00 8.2 13 Sur 22 Sur 0.2 -- -- 92
2020-03-21 11:00:00 8.5 12 Este 22 Este 0 -- -- 90
2020-03-21 10:00:00 8.1 15 Este 23 Este 0 -- -- 92
2020-03-21 09:00:00 7.7 16 Este 21 Este 0 -- -- 93
2020-03-21 08:00:00 7.3 10 Este 20 Este 0 -- -- 93
2020-03-21 07:00:00 7.3 16 Este 25 Este 0 -- -- 92
2020-03-21 06:00:00 7.4 15 Este 24 Este 0 -- -- 93
2020-03-21 05:00:00 7.5 13 Este 22 Este 0 -- -- 93
2020-03-21 04:00:00 7.6 14 Este 27 Nordeste 0 -- -- 92
2020-03-21 03:00:00 7.9 17 Este 30 Este 0 -- -- 90
2020-03-21 02:00:00 8.2 15 Este 27 Este 0 -- -- 90
2020-03-21 01:00:00 8.4 16 Este 29 Este 0 -- -- 90
2020-03-21 00:00:00 8.5 15 Nordeste 23 Este 1 -- -- 93
2020-03-20 23:00:00 8.7 9 Este 22 Nordeste 0 -- -- 93
2020-03-20 22:00:00 8.5 12 Nordeste 20 Nordeste 0 -- -- 94
2020-03-20 21:00:00 8.8 10 Este 20 Este 0 -- -- 93
2020-03-20 20:00:00 9.6 12 Este 16 Este 0.2 -- -- 95
2020-03-20 19:00:00 10.4 3 Este 8 Este 0 -- -- 90
2020-03-20 18:00:00 10.7 4 Este 12 Este 0 -- -- 89
2020-03-20 17:00:00 9.6 8 Este 14 Este 0.4 -- -- 94
2020-03-20 16:00:00 9 8 Sur 19 Sudoeste 0.8 -- -- 93
2020-03-20 15:00:00 9.4 15 Sudoeste 27 Sudoeste 1.8 -- -- 94
2020-03-20 14:00:00 9.9 17 Sudoeste 23 Sudoeste 0.4 -- -- 93
2020-03-20 13:00:00 10.1 9 Sudoeste 18 Sudoeste 2 -- -- 91
2020-03-20 12:00:00 11.7 13 Este 19 Nordeste 0 -- -- 79
2020-03-20 11:00:00 11 13 Nordeste 17 Nordeste 0 -- -- 83
2020-03-20 10:00:00 9.4 12 Nordeste 19 Nordeste 0 -- -- 88
2020-03-20 09:00:00 8.6 12 Nordeste 18 Nordeste 0 -- -- 91
2020-03-20 08:00:00 7.8 9 Este 13 Este 0 -- -- 93
2020-03-20 07:00:00 8.2 7 Este 12 Este 0 -- -- 90
2020-03-20 06:00:00 8.4 2 Este 11 Nordeste 0 -- -- 88
2020-03-20 05:00:00 8.7 5 Nordeste 10 Nordeste 0 -- -- 88
2020-03-20 04:00:00 8.8 7 Nordeste 13 Noroeste 0 -- -- 87
2020-03-20 03:00:00 9.9 0 Calma 5 Sudeste 0 -- -- 81
2020-03-20 02:00:00 9.9 4 Este 7 Sur 0 -- -- 80
2020-03-20 01:00:00 9.8 3 Sudeste 9 Este 0 -- -- 79
2020-03-20 00:00:00 10.2 9 Este 12 Sudeste 0 -- -- 77
2020-03-19 23:00:00 10.4 5 Este 11 Este 0 -- -- 74
2020-03-19 22:00:00 10.4 7 Este 10 Nordeste 0 -- -- 76
2020-03-19 21:00:00 11.2 8 Sudeste 15 Este 0 -- -- 74
2020-03-19 20:00:00 11.8 11 Este 16 Este 0 -- -- 74
2020-03-19 19:00:00 13.1 9 Este 19 Este 0 -- -- 71
2020-03-19 18:00:00 14.2 14 Este 21 Este 0 -- -- 67
2020-03-19 17:00:00 14.9 13 Este 23 Este 0 -- -- 68
2020-03-19 16:00:00 14.7 14 Este 23 Este 0 -- -- 68
2020-03-19 15:00:00 14.5 12 Este 20 Este 0 -- -- 68
2020-03-19 14:00:00 14.3 14 Este 21 Este 0 -- -- 72
2020-03-19 13:00:00 14 12 Este 22 Nordeste 0 -- -- 76
2020-03-19 12:00:00 12.7 14 Nordeste 22 Este 0 -- -- 77
2020-03-19 11:00:00 11.6 14 Nordeste 22 Nordeste 0 -- -- 81
2020-03-19 10:00:00 10.7 13 Nordeste 20 Nordeste 0 -- -- 84
2020-03-19 09:00:00 8.9 13 Nordeste 16 Nordeste 0 -- -- 90
2020-03-19 08:00:00 7.8 9 Este 19 Nordeste 0 -- -- 91
2020-03-19 07:00:00 8.1 13 Nordeste 18 Nordeste 0 -- -- 92
2020-03-19 06:00:00 8.5 13 Nordeste 17 Nordeste 0 -- -- 91
2020-03-19 05:00:00 9.2 13 Nordeste 17 Nordeste 0 -- -- 91
2020-03-19 04:00:00 9.1 9 Nordeste 14 Nordeste 0 -- -- 92
2020-03-19 03:00:00 9.9 12 Nordeste 16 Nordeste 0 -- -- 91
2020-03-19 02:00:00 10.1 9 Nordeste 11 Nordeste 0 -- -- 91
2020-03-19 01:00:00 10.3 8 Este 12 Este 0 -- -- 91
2020-03-19 00:00:00 10.9 8 Este 14 Este 0 -- -- 87
2020-03-18 23:00:00 11.4 9 Este 17 Nordeste 0 -- -- 86
2020-03-18 22:00:00 11.8 10 Nordeste 14 Este 0 -- -- 85
2020-03-18 21:00:00 11.9 9 Nordeste 13 Nordeste 0 -- -- 84
2020-03-18 20:00:00 12.8 8 Este 17 Nordeste 0 -- -- 80
2020-03-18 19:00:00 14.5 12 Este 23 Este 0 -- -- 73
2020-03-18 18:00:00 15.5 15 Nordeste 25 Este 0 -- -- 67
2020-03-18 17:00:00 15.8 15 Nordeste 32 Nordeste 0 -- -- 67
2020-03-18 16:00:00 16.5 17 Nordeste 34 Nordeste 0 -- -- 64
2020-03-18 15:00:00 15.3 21 Este 30 Nordeste 0 -- -- 70
2020-03-18 14:00:00 14.8 21 Nordeste 33 Nordeste 0 -- -- 72
2020-03-18 13:00:00 12.7 22 Nordeste 35 Este 0 -- -- 79
2020-03-18 12:00:00 11.9 28 Nordeste 37 Nordeste 0 -- -- 78
2020-03-18 11:00:00 11.2 18 Nordeste 29 Este 0 -- -- 84
2020-03-18 10:00:00 8.9 21 Nordeste 31 Este 0 -- -- 91
2020-03-18 09:00:00 6.9 21 Nordeste 33 Nordeste 0 -- -- 95
2020-03-18 08:00:00 6.7 23 Nordeste 37 Nordeste 0 -- -- 95
2020-03-18 07:00:00 6.7 20 Nordeste 28 Nordeste 0 -- -- 96
2020-03-18 06:00:00 6.9 15 Nordeste 25 Nordeste 0 -- -- 95
2020-03-18 05:00:00 7 17 Nordeste 27 Nordeste 0 -- -- 95
2020-03-18 04:00:00 7.2 14 Nordeste 25 Nordeste 0 -- -- 94
2020-03-18 03:00:00 7.6 19 Nordeste 32 Nordeste 0 -- -- 93
2020-03-18 02:00:00 7.6 18 Nordeste 26 Nordeste 0 -- -- 94
2020-03-18 01:00:00 7.9 14 Nordeste 30 Nordeste 0 -- -- 93
2020-03-18 00:00:00 8.2 17 Nordeste 35 Nordeste 0 -- -- 92
2020-03-17 23:00:00 8.8 24 Nordeste 32 Nordeste 0 -- -- 90
2020-03-17 22:00:00 9.3 22 Nordeste 36 Nordeste 0 -- -- 89
2020-03-17 21:00:00 10.2 21 Nordeste 36 Nordeste 0 -- -- 86
2020-03-17 20:00:00 11.1 22 Nordeste 42 Nordeste 0 -- -- 83
2020-03-17 19:00:00 12.3 25 Nordeste 41 Nordeste 0 -- -- 78
2020-03-17 18:00:00 13.2 23 Nordeste 42 Nordeste 0 -- -- 73
2020-03-17 17:00:00 13.6 26 Nordeste 41 Nordeste 0 -- -- 67
2020-03-17 16:00:00 13.8 26 Nordeste 43 Este 0 -- -- 68
2020-03-17 15:00:00 12.9 31 Este 44 Nordeste 0 -- -- 70
2020-03-17 14:00:00 10.8 28 Nordeste 41 Nordeste 0 -- -- 78
2020-03-17 13:00:00 9.8 25 Nordeste 44 Este 0 -- -- 80
2020-03-17 12:00:00 9.8 32 Nordeste 53 Nordeste 0 -- -- 79
2020-03-17 11:00:00 9.5 31 Nordeste 57 Nordeste 0 -- -- 78
2020-03-17 10:00:00 7.9 35 Nordeste 56 Nordeste 0 -- -- 83
2020-03-17 09:00:00 6.3 34 Nordeste 58 Nordeste 0 -- -- 86
2020-03-17 08:00:00 5.9 42 Nordeste 68 Nordeste 0 -- -- 85
2020-03-17 07:00:00 5.3 31 Nordeste 53 Nordeste 0 -- -- 87
2020-03-17 06:00:00 4.8 31 Nordeste 57 Nordeste 0 -- -- 90
2020-03-17 05:00:00 4.8 34 Nordeste 64 Nordeste 0 -- -- 87
2020-03-17 04:00:00 5 39 Nordeste 61 Nordeste 0.2 -- -- 85
2020-03-17 03:00:00 5.4 30 Nordeste 44 Nordeste 0.2 -- -- 78
2020-03-17 02:00:00 5.3 24 Nordeste 40 Nordeste 0.2 -- -- 74
2020-03-17 01:00:00 5.1 20 Nordeste 44 Nordeste 0 -- -- 75
2020-03-17 00:00:00 6 28 Nordeste 46 Nordeste 0 -- -- 64
2020-03-16 23:00:00 6.1 26 Nordeste 48 Nordeste 0 -- -- 62
2020-03-16 22:00:00 6.4 29 Nordeste 45 Nordeste 0 -- -- 59
2020-03-16 21:00:00 6.9 26 Nordeste 44 Nordeste 0 -- -- 59
2020-03-16 20:00:00 6.8 12 Nordeste 29 Nordeste 0 -- -- 75
2020-03-16 19:00:00 7.2 17 Nordeste 41 Nordeste 0 -- -- 74
2020-03-16 18:00:00 8.9 28 Nordeste 47 Nordeste 0 -- -- 52
2020-03-16 17:00:00 9.3 31 Nordeste 51 Norte 0 -- -- 55
2020-03-16 16:00:00 9.1 31 Norte 51 Norte 0 -- -- 48
2020-03-16 15:00:00 8.5 31 Norte 50 Norte 0 -- -- 50
2020-03-16 14:00:00 8.8 29 Nordeste 51 Nordeste 0 -- -- 52
2020-03-16 13:00:00 7.2 22 Nordeste 45 Nordeste 0 -- -- 59
2020-03-16 12:00:00 6.7 25 Nordeste 43 Nordeste 0 -- -- 63
2020-03-16 11:00:00 6.1 22 Norte 45 Norte 0 -- -- 64
2020-03-16 10:00:00 5.8 10 Noroeste 21 Norte 0 -- -- 72
2020-03-16 09:00:00 3.7 12 Noroeste 20 Oeste 0 -- -- 80
2020-03-16 08:00:00 2.7 9 Noroeste 23 Norte 0 -- -- 85
2020-03-16 07:00:00 1.9 7 Norte 18 Norte 0.2 -- -- 92
2020-03-16 06:00:00 1.7 10 Noroeste 19 Noroeste 0.2 -- -- 94
2020-03-16 05:00:00 1.3 12 Noroeste 20 Noroeste 0.2 -- -- 95
2020-03-16 04:00:00 1 10 Noroeste 15 Oeste 0.4 -- -- 95
2020-03-16 03:00:00 1.6 9 Norte 26 Oeste 0 -- -- 91
2020-03-16 02:00:00 1.7 18 Oeste 23 Oeste 0 -- -- 92
2020-03-16 01:00:00 2 15 Oeste 19 Oeste 0 -- -- 91
2020-03-16 00:00:00 2 16 Oeste 21 Oeste 0 -- -- 92
2020-03-15 23:00:00 2.2 18 Oeste 30 Oeste 0 -- -- 92
2020-03-15 22:00:00 2.9 19 Oeste 29 Sudoeste 0 -- -- 91
2020-03-15 21:00:00 3.4 19 Oeste 47 Oeste 0.4 -- -- 91
2020-03-15 20:00:00 4.6 37 Oeste 57 Oeste 0.2 -- -- 88
2020-03-15 19:00:00 9.8 27 Oeste 42 Oeste 0 -- -- 73
2020-03-15 18:00:00 11.8 31 Oeste 47 Oeste 0 -- -- 57
2020-03-15 17:00:00 12.6 36 Oeste 52 Oeste 0 -- -- 57
2020-03-15 16:00:00 12.5 33 Oeste 45 Oeste 0 -- -- 62
2020-03-15 15:00:00 12.6 31 Oeste 51 Oeste 0 -- -- 60
2020-03-15 14:00:00 14.5 37 Oeste 52 Oeste 0 -- -- 52
2020-03-15 13:00:00 15.8 23 Sudoeste 31 Sudoeste 0 -- -- 50
2020-03-15 12:00:00 13.9 19 Sudoeste 26 Sudoeste 0 -- -- 54
2020-03-15 11:00:00 11.6 17 Oeste 24 Oeste 0 -- -- 56
2020-03-15 10:00:00 8.4 6 Sudeste 10 Sudeste 0 -- -- 69
2020-03-15 09:00:00 5 2 Sudeste 11 Sudeste 0 -- -- 80
2020-03-15 08:00:00 3.8 4 Sur 6 Sur 0 -- -- 78
2020-03-15 07:00:00 5.6 5 Nordeste 6 Nordeste 0 -- -- 65
2020-03-15 06:00:00 6.8 3 Sudoeste 5 Oeste 0 -- -- 57
2020-03-15 05:00:00 7.4 5 Sudoeste 11 Sudoeste 0 -- -- 55
2020-03-15 04:00:00 8.6 8 Oeste 9 Oeste 0 -- -- 50
2020-03-15 03:00:00 9.2 3 Sudoeste 5 Sudoeste 0 -- -- 46
2020-03-15 02:00:00 9.3 3 Sudoeste 6 Sudoeste 0 -- -- 47
2020-03-15 01:00:00 9.6 3 Sudoeste 6 Sur 0 -- -- 54
2020-03-15 00:00:00 10.2 5 Sur 9 Sudeste 0 -- -- 54
2020-03-14 23:00:00 10.7 8 Sudeste 10 Sudeste 0 -- -- 53
2020-03-14 22:00:00 11.7 8 Sudeste 12 Sudeste 0 -- -- 49
2020-03-14 21:00:00 12.4 9 Sudeste 12 Sudeste 0 -- -- 48
2020-03-14 20:00:00 14 6 Sudeste 7 Sudeste 0 -- -- 41
2020-03-14 19:00:00 16.3 4 Sur 8 Sur 0 -- -- 38
2020-03-14 18:00:00 17.1 7 Sur 14 Sudoeste 0 -- -- 39
2020-03-14 17:00:00 16.9 5 Este 13 Sudeste 0 -- -- 36
2020-03-14 16:00:00 16.8 7 Sur 15 Sudeste 0 -- -- 40
2020-03-14 15:00:00 15.7 8 Este 17 Este 0 -- -- 48
2020-03-14 14:00:00 14.3 8 Este 19 Este 0 -- -- 54
2020-03-14 13:00:00 12.4 11 Este 18 Este 0 -- -- 56
2020-03-14 12:00:00 10.9 8 Este 19 Este 0 -- -- 65
2020-03-14 11:00:00 9.2 10 Este 16 Este 0 -- -- 73
2020-03-14 10:00:00 7.1 8 Nordeste 13 Nordeste 0 -- -- 82
2020-03-14 09:00:00 4.7 9 Nordeste 13 Nordeste 0 -- -- 89
2020-03-14 08:00:00 2.3 8 Nordeste 9 Este 0 -- -- 97
2020-03-14 07:00:00 2.3 9 Este 13 Este 0 -- -- 94
2020-03-14 06:00:00 2.5 8 Este 13 Este 0 -- -- 94
2020-03-14 05:00:00 3.2 9 Nordeste 14 Nordeste 0 -- -- 92
2020-03-14 04:00:00 3.5 9 Nordeste 17 Este 0 -- -- 91
2020-03-14 03:00:00 4.1 12 Nordeste 15 Nordeste 0 -- -- 91
2020-03-14 02:00:00 4.9 13 Nordeste 17 Nordeste 0 -- -- 89
2020-03-14 01:00:00 5.5 11 Nordeste 21 Nordeste 0 -- -- 88
2020-03-14 00:00:00 6 10 Nordeste 14 Nordeste 0 -- -- 89
2020-03-13 23:00:00 7 12 Este 26 Nordeste 0 -- -- 86
2020-03-13 22:00:00 8.3 16 Nordeste 25 Nordeste 0 -- -- 83
2020-03-13 21:00:00 9.4 13 Este 19 Este 0 -- -- 80
2020-03-13 20:00:00 10.8 11 Este 18 Este 0 -- -- 77
2020-03-13 19:00:00 13.3 13 Este 22 Este 0 -- -- 67
2020-03-13 18:00:00 14.6 13 Este 22 Nordeste 0 -- -- 63
2020-03-13 17:00:00 15.4 14 Nordeste 26 Nordeste 0 -- -- 60
2020-03-13 16:00:00 15.1 15 Nordeste 26 Nordeste 0 -- -- 62
2020-03-13 15:00:00 14.2 17 Nordeste 30 Este 0 -- -- 66
2020-03-13 14:00:00 13 18 Nordeste 35 Nordeste 0 -- -- 69
2020-03-13 13:00:00 13.1 21 Nordeste 35 Nordeste 0 -- -- 69
2020-03-13 12:00:00 11.5 24 Nordeste 34 Nordeste 0 -- -- 74
2020-03-13 11:00:00 9.7 27 Nordeste 40 Este 0 -- -- 80
2020-03-13 10:00:00 8.2 27 Nordeste 42 Este 0 -- -- 83
2020-03-13 09:00:00 7 22 Nordeste 36 Nordeste 0 -- -- 88
2020-03-13 08:00:00 6.2 24 Nordeste 38 Nordeste 0 -- -- 91
2020-03-13 07:00:00 5.9 24 Nordeste 43 Nordeste 0 -- -- 91
2020-03-13 06:00:00 6.2 26 Nordeste 42 Nordeste 0 -- -- 91
2020-03-13 05:00:00 6.3 25 Nordeste 39 Nordeste 0 -- -- 90
2020-03-13 04:00:00 6.5 24 Nordeste 38 Nordeste 0 -- -- 89
2020-03-13 03:00:00 6.8 28 Nordeste 40 Nordeste 0 -- -- 89
2020-03-13 02:00:00 7.2 28 Nordeste 40 Nordeste 0 -- -- 89
2020-03-13 01:00:00 7.8 26 Nordeste 37 Nordeste 0 -- -- 90
2020-03-13 00:00:00 8.5 27 Nordeste 45 Nordeste 0 -- -- 90
2020-03-12 23:00:00 9.5 27 Nordeste 41 Nordeste 0 -- -- 86
2020-03-12 22:00:00 11.1 19 Nordeste 28 Nordeste 0 -- -- 83
2020-03-12 21:00:00 14.5 12 Noroeste 17 Oeste 0 -- -- 72
2020-03-12 20:00:00 15.3 14 Oeste 18 Oeste 0 -- -- 68
2020-03-12 19:00:00 16.7 14 Oeste 16 Oeste 0 -- -- 67
2020-03-12 18:00:00 18.7 8 Sudoeste 13 Oeste 0 -- -- 62
2020-03-12 17:00:00 19.9 9 Oeste 16 Sudoeste 0 -- -- 49
2020-03-12 16:00:00 19.1 9 Sudoeste 14 Sudoeste 0 -- -- 54
2020-03-12 15:00:00 19.4 5 Sudoeste 10 Sudoeste 0 -- -- 56
2020-03-12 14:00:00 18.2 3 Sur 10 Sudoeste 0 -- -- 57
2020-03-12 13:00:00 16.3 4 Nordeste 9 Este 0 -- -- 66
2020-03-12 12:00:00 14.9 5 Este 10 Este 0 -- -- 71
2020-03-12 11:00:00 13.1 7 Este 12 Este 0 -- -- 74
2020-03-12 10:00:00 11.2 6 Este 14 Nordeste 0 -- -- 77
2020-03-12 09:00:00 10.2 6 Nordeste 11 Este 0 -- -- 81
2020-03-12 08:00:00 12.4 5 Sudeste 6 Sudeste 0 -- -- 67
2020-03-12 07:00:00 12.9 4 Sur 5 Sur 0 -- -- 66
2020-03-12 06:00:00 13.6 2 Sudoeste 6 Oeste 0 -- -- 64
2020-03-12 05:00:00 13.3 4 Oeste 5 Oeste 0 -- -- 60
2020-03-12 04:00:00 13.7 0 Calma 3 Sur 0 -- -- 59
2020-03-12 03:00:00 14.7 0 Calma -- -- 0 -- -- 55
2020-03-12 02:00:00 14.8 3 Sudoeste 5 Sur 0 -- -- 54
2020-03-12 01:00:00 14.4 4 Sur 5 Sur 0 -- -- 56
2020-03-12 00:00:00 15.3 4 Oeste 12 Oeste 0 -- -- 53
2020-03-11 23:00:00 15.5 11 Oeste 13 Oeste 0 -- -- 53
2020-03-11 22:00:00 16.4 8 Sudoeste 13 Sudoeste 0 -- -- 50
2020-03-11 21:00:00 17 6 Sudoeste 9 Oeste 0 -- -- 50
2020-03-11 20:00:00 17.8 9 Oeste 13 Oeste 0 -- -- 50
2020-03-11 19:00:00 18.7 11 Oeste 20 Oeste 0 -- -- 49
2020-03-11 18:00:00 20.6 14 Oeste 25 Oeste 0 -- -- 45
2020-03-11 17:00:00 21.8 23 Oeste 31 Oeste 0 -- -- 42
2020-03-11 16:00:00 22.5 20 Oeste 30 Oeste 0 -- -- 39
2020-03-11 15:00:00 21.6 16 Sudoeste 26 Sudoeste 0 -- -- 43
2020-03-11 14:00:00 20.7 12 Sudoeste 20 Sudoeste 0 -- -- 43
2020-03-11 13:00:00 19.7 9 Sudoeste 15 Sudoeste 0 -- -- 44
2020-03-11 12:00:00 17.5 3 Oeste 9 Sur 0 -- -- 53
2020-03-11 11:00:00 14.8 5 Sudeste 9 Este 0 -- -- 50
2020-03-11 10:00:00 11.3 5 Sudeste 8 Sudeste 0 -- -- 67
2020-03-11 09:00:00 9 4 Este 6 Este 0 -- -- 68
2020-03-11 08:00:00 7.6 4 Sudeste 5 Sudeste 0 -- -- 70
2020-03-11 07:00:00 9 4 Sudoeste 8 Sudoeste 0 -- -- 60
2020-03-11 06:00:00 8.7 5 Sudoeste 8 Oeste 0 -- -- 63
2020-03-11 05:00:00 8.8 6 Sudoeste 9 Sudoeste 0 -- -- 66
2020-03-11 04:00:00 8.9 7 Sudoeste 10 Sudoeste 0 -- -- 67
2020-03-11 03:00:00 9.1 9 Oeste 12 Oeste 0 -- -- 65
2020-03-11 02:00:00 9.3 12 Oeste 16 Oeste 0 -- -- 65
2020-03-11 01:00:00 10.2 15 Oeste 18 Oeste 0 -- -- 63
2020-03-11 00:00:00 10.6 15 Oeste 18 Oeste 0 -- -- 58
2020-03-10 23:00:00 11.4 13 Oeste 15 Oeste 0 -- -- 54
2020-03-10 22:00:00 13.5 15 Oeste 18 Oeste 0 -- -- 48
2020-03-10 21:00:00 13.1 13 Oeste 15 Oeste 0 -- -- 51
2020-03-10 20:00:00 13.7 10 Sudoeste 20 Oeste 0 -- -- 51
2020-03-10 19:00:00 16.7 16 Oeste 28 Oeste 0 -- -- 46
2020-03-10 18:00:00 18.9 21 Oeste 37 Oeste 0 -- -- 36
2020-03-10 17:00:00 19.3 28 Oeste 40 Oeste 0 -- -- 38
2020-03-10 16:00:00 19.5 25 Oeste 36 Sudoeste 0 -- -- 48
2020-03-10 15:00:00 18.7 25 Oeste 32 Oeste 0 -- -- 50
2020-03-10 14:00:00 17.8 21 Oeste 27 Oeste 0 -- -- 49
2020-03-10 13:00:00 15.8 17 Sudoeste 22 Sudoeste 0 -- -- 52
2020-03-10 12:00:00 14 15 Oeste 20 Sudoeste 0 -- -- 60
2020-03-10 11:00:00 11.5 16 Oeste 22 Oeste 0 -- -- 79
2020-03-10 10:00:00 8.1 12 Sudoeste 14 Sudoeste 0 -- -- 87
2020-03-10 09:00:00 6 12 Oeste 16 Oeste 0 -- -- 92
2020-03-10 08:00:00 5.2 11 Oeste 14 Sudoeste 0 -- -- 93
2020-03-10 07:00:00 5.2 9 Sudoeste 15 Sudoeste 0 -- -- 91
2020-03-10 06:00:00 5.2 13 Sudoeste 17 Sudoeste 0 -- -- 89
2020-03-10 05:00:00 5.5 15 Sudoeste 17 Sudoeste 0 -- -- 85
2020-03-10 04:00:00 6 14 Oeste 18 Oeste 0 -- -- 81
2020-03-10 03:00:00 6 15 Oeste 18 Sudoeste 0 -- -- 80
2020-03-10 02:00:00 6.9 15 Sudoeste 17 Sudoeste 0 -- -- 78
2020-03-10 01:00:00 7.5 8 Sudoeste 12 Sudoeste 0 -- -- 74
2020-03-10 00:00:00 7.7 12 Oeste 15 Oeste 0 -- -- 74
2020-03-09 23:00:00 8.9 14 Oeste 17 Oeste 0 -- -- 70
2020-03-09 22:00:00 8.8 10 Oeste 15 Oeste 0 -- -- 70
2020-03-09 21:00:00 9.2 14 Sudoeste 18 Oeste 0 -- -- 70
2020-03-09 20:00:00 10.1 8 Sudoeste 20 Sudoeste 0 -- -- 66
2020-03-09 19:00:00 12.4 15 Sudoeste 27 Sudoeste 0 -- -- 60
2020-03-09 18:00:00 13.7 22 Sudoeste 28 Oeste 0 -- -- 55
2020-03-09 17:00:00 14.7 18 Sudoeste 25 Oeste 0 -- -- 49
2020-03-09 16:00:00 13.4 11 Sudoeste 19 Sudoeste 0 -- -- 54
2020-03-09 15:00:00 13.6 7 Oeste 17 Sudoeste 0 -- -- 53
2020-03-09 14:00:00 12.4 8 Sudoeste 16 Sudoeste 0 -- -- 61
2020-03-09 13:00:00 10.8 6 Sudoeste 13 Sudoeste 0 -- -- 63
2020-03-09 12:00:00 9.3 5 Sudoeste 12 Oeste 0 -- -- 74
2020-03-09 11:00:00 7 8 Oeste 14 Sudoeste 0 -- -- 82
2020-03-09 10:00:00 5 6 Oeste 10 Oeste 0 -- -- 95
2020-03-09 09:00:00 3.4 4 Oeste 15 Oeste 0 -- -- 99
2020-03-09 08:00:00 2.3 14 Oeste 17 Oeste 0 -- -- 98
2020-03-09 07:00:00 2.3 14 Oeste 18 Oeste 0 -- -- 98
2020-03-09 06:00:00 2.5 13 Oeste 18 Sudoeste 0 -- -- 98
2020-03-09 05:00:00 2.4 16 Oeste 22 Oeste 0 -- -- 96
2020-03-09 04:00:00 3 16 Sudoeste 22 Oeste 0 -- -- 96
2020-03-09 03:00:00 3.8 15 Oeste 24 Oeste 0 -- -- 94
2020-03-09 02:00:00 4.5 18 Oeste 28 Oeste 0 -- -- 94
2020-03-09 01:00:00 5.3 19 Oeste 33 Oeste 0 -- -- 95
2020-03-09 00:00:00 5.7 17 Oeste 24 Oeste 0 -- -- 95
2020-03-08 23:00:00 6.4 18 Oeste 26 Oeste 0 -- -- 93
2020-03-08 22:00:00 7.6 20 Oeste 30 Oeste 0 -- -- 91
2020-03-08 21:00:00 8.3 24 Sudoeste 33 Oeste 0 -- -- 91
2020-03-08 20:00:00 8.4 24 Oeste 35 Sudoeste 0 -- -- 90
2020-03-08 19:00:00 10.2 32 Sudoeste 40 Oeste 0 -- -- 82
2020-03-08 18:00:00 10.9 32 Sudoeste 41 Sudoeste 0 -- -- 80
2020-03-08 17:00:00 12.3 27 Oeste 37 Oeste 0 -- -- 78
2020-03-08 16:00:00 11.4 25 Sudoeste 36 Oeste 0 -- -- 77
2020-03-08 15:00:00 11.2 30 Sudoeste 37 Oeste 0 -- -- 75
2020-03-08 14:00:00 9.6 26 Oeste 36 Oeste 0 -- -- 79
2020-03-08 13:00:00 8.4 24 Sudoeste 34 Oeste 0 -- -- 83
2020-03-08 12:00:00 7.2 21 Oeste 29 Oeste 0 -- -- 86
2020-03-08 11:00:00 6.3 15 Oeste 32 Oeste 0 -- -- 93
2020-03-08 10:00:00 4.8 20 Oeste 28 Oeste 0 -- -- 99
2020-03-08 09:00:00 3.5 14 Sudoeste 24 Oeste 0 -- -- 99
2020-03-08 08:00:00 2.2 16 Oeste 22 Sudoeste 0 -- -- 98
2020-03-08 07:00:00 2 15 Sudoeste 21 Sudoeste 0 -- -- 98
2020-03-08 06:00:00 1.7 13 Sudoeste 15 Sudoeste 0 -- -- 96
2020-03-08 05:00:00 2.3 14 Oeste 17 Oeste 0 -- -- 95
2020-03-08 04:00:00 3.3 12 Oeste 15 Oeste 0 -- -- 92
2020-03-08 03:00:00 4.3 8 Sudoeste 17 Oeste 0 -- -- 89
2020-03-08 02:00:00 4.8 13 Oeste 15 Oeste 0 -- -- 87
2020-03-08 01:00:00 6 8 Sudoeste 13 Sudoeste 0 -- -- 81
2020-03-08 00:00:00 5.7 17 Sudoeste 21 Sudoeste 0 -- -- 83
2020-03-07 23:00:00 6.2 11 Sudoeste 13 Sudoeste 0 -- -- 79
2020-03-07 22:00:00 7.2 14 Sudoeste 23 Sudoeste 0 -- -- 76
2020-03-07 21:00:00 7.1 18 Sudoeste 22 Sudoeste 0 -- -- 78
2020-03-07 20:00:00 9 12 Oeste 18 Oeste 0 -- -- 71
2020-03-07 19:00:00 11.5 16 Oeste 27 Oeste 0 -- -- 64
2020-03-07 18:00:00 13.4 17 Oeste 26 Oeste 0 -- -- 62
2020-03-07 17:00:00 13.6 17 Oeste 25 Oeste 0 -- -- 59
2020-03-07 16:00:00 12.7 13 Oeste 24 Oeste 0 -- -- 59
2020-03-07 15:00:00 12.7 10 Sudoeste 23 Sudoeste 0 -- -- 61
2020-03-07 14:00:00 12 12 Sudoeste 18 Sur 0 -- -- 66
2020-03-07 13:00:00 11.4 6 Sudeste 15 Sudeste 0 -- -- 64
2020-03-07 12:00:00 10.6 6 Sudeste 14 Este 0 -- -- 66
2020-03-07 11:00:00 8.1 4 Sudoeste 8 Oeste 0 -- -- 81
2020-03-07 10:00:00 5.6 6 Oeste 9 Oeste 0 -- -- 91
2020-03-07 09:00:00 3 6 Oeste 11 Oeste 0 -- -- 97
2020-03-07 08:00:00 2.6 12 Oeste 18 Oeste 0 -- -- 96
2020-03-07 07:00:00 2.6 17 Oeste 24 Oeste 0 -- -- 95
2020-03-07 06:00:00 2.6 17 Oeste 21 Oeste 0 -- -- 94
2020-03-07 05:00:00 2.8 10 Oeste 21 Oeste 0 -- -- 92
2020-03-07 04:00:00 3.5 18 Oeste 25 Oeste 0 -- -- 90
2020-03-07 03:00:00 3.2 12 Oeste 27 Oeste 0 -- -- 89
2020-03-07 02:00:00 3.5 19 Oeste 29 Oeste 0 -- -- 86
2020-03-07 01:00:00 3.2 18 Oeste 24 Oeste 0 -- -- 83
2020-03-07 00:00:00 3.2 15 Oeste 25 Oeste 0 -- -- 81
2020-03-06 23:00:00 3.8 18 Oeste 31 Oeste 0 -- -- 75
2020-03-06 22:00:00 4.3 22 Oeste 28 Oeste 0 -- -- 71
2020-03-06 21:00:00 4.5 14 Oeste 28 Oeste 0 -- -- 72
2020-03-06 20:00:00 5.4 9 Sudoeste 34 Oeste 0 -- -- 66
2020-03-06 19:00:00 7.5 14 Noroeste 44 Oeste 0 -- -- 58
2020-03-06 18:00:00 8.9 28 Oeste 46 Oeste 0 -- -- 53
2020-03-06 17:00:00 9.3 30 Oeste 51 Oeste 0 -- -- 54
2020-03-06 16:00:00 9.3 39 Oeste 54 Oeste 0 -- -- 54
2020-03-06 15:00:00 9.5 33 Oeste 53 Oeste 0 -- -- 55
2020-03-06 14:00:00 9 34 Oeste 50 Oeste 0 -- -- 65
2020-03-06 13:00:00 8.5 35 Oeste 57 Oeste 0 -- -- 64
2020-03-06 12:00:00 7 35 Oeste 60 Noroeste 0 -- -- 71
2020-03-06 11:00:00 6.4 42 Oeste 61 Oeste 0 -- -- 71
2020-03-06 10:00:00 5.2 35 Oeste 55 Oeste 0 -- -- 82
2020-03-06 09:00:00 4 37 Oeste 52 Oeste 0 -- -- 85
2020-03-06 08:00:00 3.3 24 Oeste 38 Oeste 0 -- -- 89
2020-03-06 07:00:00 2.9 27 Oeste 48 Oeste 0 -- -- 87
2020-03-06 06:00:00 3.5 23 Oeste 38 Oeste 0 -- -- 91
2020-03-06 05:00:00 3.8 22 Sudoeste 40 Oeste 0.2 -- -- 94
2020-03-06 04:00:00 4.9 25 Sudoeste 42 Oeste 0 -- -- 95
2020-03-06 03:00:00 5 31 Oeste 47 Oeste 0.2 -- -- 97
2020-03-06 02:00:00 4.7 27 Sudoeste 39 Sudoeste 0.2 -- -- 96
2020-03-06 01:00:00 4.2 25 Sudoeste 31 Sudoeste 0 -- -- 93
2020-03-06 00:00:00 4.3 21 Sudoeste 33 Oeste 0 -- -- 90
2020-03-05 23:00:00 4.2 17 Sudoeste 26 Sudoeste 0 -- -- 91
2020-03-05 22:00:00 4.5 20 Oeste 36 Oeste 0 -- -- 86
2020-03-05 21:00:00 5.7 28 Oeste 46 Oeste 0 -- -- 82
2020-03-05 20:00:00 6.6 24 Oeste 62 Oeste 0 -- -- 79
2020-03-05 19:00:00 7.8 33 Oeste 46 Oeste 0 -- -- 81
2020-03-05 18:00:00 8.5 40 Oeste 63 Oeste 0 -- -- 81
2020-03-05 17:00:00 11.2 38 Oeste 58 Oeste 0 -- -- 73
2020-03-05 16:00:00 10.5 39 Oeste 57 Oeste 0 -- -- 76
2020-03-05 15:00:00 9 35 Oeste 58 Oeste 0 -- -- 87
2020-03-05 14:00:00 10.1 47 Oeste 60 Sudoeste 0 -- -- 77
2020-03-05 13:00:00 9.8 50 Oeste 66 Oeste 0 -- -- 78
2020-03-05 12:00:00 9 45 Oeste 58 Oeste 0 -- -- 80
2020-03-05 11:00:00 7.7 39 Oeste 51 Oeste 0 -- -- 86
2020-03-05 10:00:00 6.5 34 Sudoeste 49 Sudoeste 0 -- -- 96
2020-03-05 09:00:00 6.2 36 Oeste 61 Oeste 1.2 -- -- 97
2020-03-05 08:00:00 8.5 47 Oeste 68 Sudoeste 2.4 -- -- 98
2020-03-05 07:00:00 9.5 44 Sudoeste 66 Sudoeste 0.8 -- -- 97
2020-03-05 06:00:00 9.2 40 Sudoeste 53 Sudoeste 0.8 -- -- 98
2020-03-05 05:00:00 9.6 43 Sudoeste 61 Oeste 0.2 -- -- 96
2020-03-05 04:00:00 9.9 40 Sudoeste 63 Sudoeste 0 -- -- 96
2020-03-05 03:00:00 10.2 42 Sudoeste 58 Sudoeste 0 -- -- 96
2020-03-05 02:00:00 10.3 33 Sudoeste 49 Sudoeste 0 -- -- 98
2020-03-05 01:00:00 10.6 40 Sudoeste 57 Sudoeste 0.6 -- -- 97
2020-03-05 00:00:00 10.5 28 Sudoeste 41 Sudoeste 0.4 -- -- 98
2020-03-04 23:00:00 10.4 27 Sudoeste 41 Sudoeste 0 -- -- 97
2020-03-04 22:00:00 10.4 27 Sudoeste 37 Sudoeste 0 -- -- 96
2020-03-04 21:00:00 10.5 14 Sudoeste 48 Oeste 0 -- -- 93
2020-03-04 20:00:00 11.8 22 Sudoeste 36 Sudoeste 0 -- -- 85
2020-03-04 19:00:00 12.2 26 Sudoeste 40 Sudoeste 0 -- -- 81
2020-03-04 18:00:00 12.6 27 Sudoeste 40 Sudoeste 0 -- -- 82
2020-03-04 17:00:00 12.2 30 Sudoeste 41 Sudoeste 0 -- -- 84
2020-03-04 16:00:00 13 26 Sudoeste 43 Sudoeste 0 -- -- 80
2020-03-04 15:00:00 11.9 26 Sudoeste 40 Oeste 0 -- -- 85
2020-03-04 14:00:00 12.1 27 Sudoeste 40 Sudoeste 0 -- -- 86
2020-03-04 13:00:00 11.3 26 Oeste 39 Sudoeste 0 -- -- 90
2020-03-04 12:00:00 11 28 Sudoeste 37 Sudoeste 0 -- -- 92
2020-03-04 11:00:00 10.2 25 Oeste 37 Oeste 0 -- -- 94
2020-03-04 10:00:00 9.4 27 Sudoeste 35 Sudoeste 0 -- -- 97
2020-03-04 09:00:00 9.1 23 Sudoeste 32 Oeste 0 -- -- 97
2020-03-04 08:00:00 9.2 23 Sudoeste 39 Oeste 0 -- -- 97
2020-03-04 07:00:00 9.4 26 Oeste 43 Oeste 0 -- -- 97
2020-03-04 06:00:00 9.7 25 Sudoeste 45 Sudoeste 0 -- -- 96
2020-03-04 05:00:00 9.9 32 Sudoeste 42 Sudoeste 0 -- -- 96
2020-03-04 04:00:00 10.3 26 Sudoeste 38 Oeste 0 -- -- 97
2020-03-04 03:00:00 10.5 27 Sudoeste 43 Sudoeste 0 -- -- 96
2020-03-04 02:00:00 10.7 32 Sudoeste 43 Sudoeste 0 -- -- 95
2020-03-04 01:00:00 10.9 32 Oeste 44 Oeste 0 -- -- 95
2020-03-04 00:00:00 11 25 Sudoeste 36 Sudoeste 0.2 -- -- 97